Brandon, SD

8:51 AM CDT on September 25, 2016 (GMT -0500)
IEM | | Change Station

Elev 1368 ft 43.60 °N, 96.58 °W | Updated 24 minutes ago

Mostly Cloudy
Mostly Cloudy
54 °F
Feels Like 54 °F
N
15
Wind Variable Wind from WSW
Gusts 0.0 mph

Today
High -- | Low -- °F
--% Chance of Precip.
Yesterday
High -- | Low -- °F
Precip. -- in
Pressure 29.99 in
Visibility 10.0 miles
Clouds Mostly Cloudy 3200 ft
Mostly Cloudy 25000 ft
Dew Point 54 °F
Humidity 100%
Rainfall in
Snow Depth Not available.
7:17 AM 7:17 PM
Waning Crescent, 27% visible
METAR KFSD 251256Z 26006KT 10SM BKN032 BKN250 13/09 A2999 RMK AO2 SLP154 T01280089
Pressure 29.99 in
Visibility 10.0 miles
Clouds Mostly Cloudy 3200 ft
Mostly Cloudy 25000 ft
Dew Point 54 °F
Humidity 100%
Rainfall in
Snow Depth Not available.
7:17 AM 7:17 PM
Waning Crescent, 27% visible
METAR KFSD 251256Z 26006KT 10SM BKN032 BKN250 13/09 A2999 RMK AO2 SLP154 T01280089

10-Day Weather Forecast

Almanac

Astronomy

Sep. 25, 2016 Rise Set
Actual Time
Civil Twilight
Nautical Twilight
Astronomical Twilight
Moon
Length of Visible Light
Length of Day
Tomorrow will be .
, % of the Moon is Illuminated

Today's Extremes

State Highs State Lows

Community

WunderPhotos

Upload Photos

1,941,609 photos uploaded!

WunderBlog® & News

Nearby

Air Quality

  Air Quality AQ Index Pollutant
Not available.

Snow Depth

Station Depth Elevation

Earthquake Activity

City Distance Mag. Time & Date
Minimum magnitude displayed is 2.5.

Coastal Water Temperatures

Place Temperature

Stations

Nearby Weather Stations

Station Location Temp. Windchill Dew Point Humidity Wind Precip. Elev Updated Type
                   

Watches & Warnings

There are currently no watches in effect.